sensor_id;sensor_type;location;lat;lon;timestamp;pressure;altitude;pressure_sealevel;temperature
68588;BMP180;55560;52.174;20.996;2024-02-23T00:01:16;98489.60;;;9.20
68588;BMP180;55560;52.174;20.996;2024-02-23T00:03:44;98490.20;;;9.20
68588;BMP180;55560;52.174;20.996;2024-02-23T00:06:12;98490.60;;;9.20
68588;BMP180;55560;52.174;20.996;2024-02-23T00:08:40;98483.20;;;9.20
68588;BMP180;55560;52.174;20.996;2024-02-23T00:11:09;98483.80;;;9.30
68588;BMP180;55560;52.174;20.996;2024-02-23T00:13:37;98479.40;;;9.28
68588;BMP180;55560;52.174;20.996;2024-02-23T00:16:05;98484.60;;;9.20
68588;BMP180;55560;52.174;20.996;2024-02-23T00:18:33;98485.40;;;9.20
68588;BMP180;55560;52.174;20.996;2024-02-23T00:21:04;98479.80;;;9.20
68588;BMP180;55560;52.174;20.996;2024-02-23T00:23:32;98483.20;;;9.28
68588;BMP180;55560;52.174;20.996;2024-02-23T00:26:00;98481.80;;;9.30
68588;BMP180;55560;52.174;20.996;2024-02-23T00:28:28;98483.40;;;9.30
68588;BMP180;55560;52.174;20.996;2024-02-23T00:30:55;98480.60;;;9.30
68588;BMP180;55560;52.174;20.996;2024-02-23T00:33:23;98480.40;;;9.30
68588;BMP180;55560;52.174;20.996;2024-02-23T00:35:51;98480.40;;;9.30
68588;BMP180;55560;52.174;20.996;2024-02-23T00:38:19;98475.40;;;9.30
68588;BMP180;55560;52.174;20.996;2024-02-23T00:40:47;98473.40;;;9.30
68588;BMP180;55560;52.174;20.996;2024-02-23T00:43:15;98474.00;;;9.30
68588;BMP180;55560;52.174;20.996;2024-02-23T00:45:43;98471.20;;;9.30
68588;BMP180;55560;52.174;20.996;2024-02-23T00:48:11;98467.80;;;9.30
68588;BMP180;55560;52.174;20.996;2024-02-23T00:50:40;98463.40;;;9.30
68588;BMP180;55560;52.174;20.996;2024-02-23T00:53:08;98468.80;;;9.30
68588;BMP180;55560;52.174;20.996;2024-02-23T00:55:36;98458.40;;;9.30
68588;BMP180;55560;52.174;20.996;2024-02-23T00:58:04;98458.20;;;9.26
68588;BMP180;55560;52.174;20.996;2024-02-23T01:00:32;98456.40;;;9.28
68588;BMP180;55560;52.174;20.996;2024-02-23T01:03:00;98445.60;;;9.20
68588;BMP180;55560;52.174;20.996;2024-02-23T01:05:28;98449.20;;;9.26
68588;BMP180;55560;52.174;20.996;2024-02-23T01:07:56;98446.60;;;9.20
68588;BMP180;55560;52.174;20.996;2024-02-23T01:10:24;98440.20;;;9.20
68588;BMP180;55560;52.174;20.996;2024-02-23T01:12:52;98439.40;;;9.20
68588;BMP180;55560;52.174;20.996;2024-02-23T01:15:20;98437.80;;;9.20
68588;BMP180;55560;52.174;20.996;2024-02-23T01:17:48;98435.40;;;9.20
68588;BMP180;55560;52.174;20.996;2024-02-23T01:20:16;98434.60;;;9.30
68588;BMP180;55560;52.174;20.996;2024-02-23T01:22:45;98420.20;;;9.30
68588;BMP180;55560;52.174;20.996;2024-02-23T01:25:14;98425.80;;;9.24
68588;BMP180;55560;52.174;20.996;2024-02-23T01:27:44;98424.00;;;9.20
68588;BMP180;55560;52.174;20.996;2024-02-23T01:30:12;98426.80;;;9.20
68588;BMP180;55560;52.174;20.996;2024-02-23T01:32:40;98420.60;;;9.22
68588;BMP180;55560;52.174;20.996;2024-02-23T01:35:08;98420.60;;;9.20
68588;BMP180;55560;52.174;20.996;2024-02-23T01:37:37;98415.40;;;9.20
68588;BMP180;55560;52.174;20.996;2024-02-23T01:40:06;98416.60;;;9.20
68588;BMP180;55560;52.174;20.996;2024-02-23T01:42:34;98422.00;;;9.20
68588;BMP180;55560;52.174;20.996;2024-02-23T01:45:02;98417.40;;;9.20
68588;BMP180;55560;52.174;20.996;2024-02-23T01:47:31;98421.80;;;9.20
68588;BMP180;55560;52.174;20.996;2024-02-23T01:49:59;98425.60;;;9.20
68588;BMP180;55560;52.174;20.996;2024-02-23T01:52:27;98426.20;;;9.20
68588;BMP180;55560;52.174;20.996;2024-02-23T01:54:56;98418.20;;;9.20
68588;BMP180;55560;52.174;20.996;2024-02-23T01:57:24;98425.40;;;9.20
68588;BMP180;55560;52.174;20.996;2024-02-23T02:00:16;98423.40;;;9.20
68588;BMP180;55560;52.174;20.996;2024-02-23T02:02:48;98425.00;;;9.20
68588;BMP180;55560;52.174;20.996;2024-02-23T02:05:16;98419.20;;;9.20
68588;BMP180;55560;52.174;20.996;2024-02-23T02:07:45;98418.80;;;9.26
68588;BMP180;55560;52.174;20.996;2024-02-23T02:10:13;98413.60;;;9.30
68588;BMP180;55560;52.174;20.996;2024-02-23T02:12:41;98414.20;;;9.30
68588;BMP180;55560;52.174;20.996;2024-02-23T02:15:09;98415.00;;;9.30
68588;BMP180;55560;52.174;20.996;2024-02-23T02:17:37;98407.60;;;9.30
68588;BMP180;55560;52.174;20.996;2024-02-23T02:20:07;98404.60;;;9.30
68588;BMP180;55560;52.174;20.996;2024-02-23T02:22:38;98404.00;;;9.30
68588;BMP180;55560;52.174;20.996;2024-02-23T02:25:07;98409.60;;;9.34
68588;BMP180;55560;52.174;20.996;2024-02-23T02:27:35;98413.20;;;9.34
68588;BMP180;55560;52.174;20.996;2024-02-23T02:30:04;98408.60;;;9.36
68588;BMP180;55560;52.174;20.996;2024-02-23T02:32:32;98399.00;;;9.40
68588;BMP180;55560;52.174;20.996;2024-02-23T02:35:05;98411.00;;;9.40
68588;BMP180;55560;52.174;20.996;2024-02-23T02:37:34;98408.00;;;9.30
68588;BMP180;55560;52.174;20.996;2024-02-23T02:40:02;98403.80;;;9.30
68588;BMP180;55560;52.174;20.996;2024-02-23T02:42:33;98394.00;;;9.30
68588;BMP180;55560;52.174;20.996;2024-02-23T02:45:01;98399.60;;;9.30
68588;BMP180;55560;52.174;20.996;2024-02-23T02:47:30;98402.80;;;9.30
68588;BMP180;55560;52.174;20.996;2024-02-23T02:49:59;98403.40;;;9.40
68588;BMP180;55560;52.174;20.996;2024-02-23T02:52:27;98396.60;;;9.40
68588;BMP180;55560;52.174;20.996;2024-02-23T02:54:56;98402.60;;;9.40
68588;BMP180;55560;52.174;20.996;2024-02-23T02:57:23;98401.80;;;9.40
68588;BMP180;55560;52.174;20.996;2024-02-23T02:59:51;98400.40;;;9.40
68588;BMP180;55560;52.174;20.996;2024-02-23T03:02:19;98405.20;;;9.48
68588;BMP180;55560;52.174;20.996;2024-02-23T03:04:49;98404.60;;;9.46
68588;BMP180;55560;52.174;20.996;2024-02-23T03:07:17;98400.20;;;9.50
68588;BMP180;55560;52.174;20.996;2024-02-23T03:09:45;98402.80;;;9.40
68588;BMP180;55560;52.174;20.996;2024-02-23T03:12:14;98408.20;;;9.50
68588;BMP180;55560;52.174;20.996;2024-02-23T03:14:42;98405.00;;;9.50
68588;BMP180;55560;52.174;20.996;2024-02-23T03:17:10;98403.60;;;9.50
68588;BMP180;55560;52.174;20.996;2024-02-23T03:19:38;98405.60;;;9.50
68588;BMP180;55560;52.174;20.996;2024-02-23T03:22:06;98418.20;;;9.50
68588;BMP180;55560;52.174;20.996;2024-02-23T03:24:34;98414.40;;;9.50
68588;BMP180;55560;52.174;20.996;2024-02-23T03:27:02;98420.80;;;9.42
68588;BMP180;55560;52.174;20.996;2024-02-23T03:29:30;98428.60;;;9.40
68588;BMP180;55560;52.174;20.996;2024-02-23T03:32:00;98427.40;;;9.40
68588;BMP180;55560;52.174;20.996;2024-02-23T03:34:29;98429.20;;;9.40
68588;BMP180;55560;52.174;20.996;2024-02-23T03:36:57;98424.40;;;9.40
68588;BMP180;55560;52.174;20.996;2024-02-23T03:39:26;98428.00;;;9.30
68588;BMP180;55560;52.174;20.996;2024-02-23T03:41:54;98426.60;;;9.30
68588;BMP180;55560;52.174;20.996;2024-02-23T03:44:22;98429.00;;;9.20
68588;BMP180;55560;52.174;20.996;2024-02-23T03:46:50;98432.00;;;9.20
68588;BMP180;55560;52.174;20.996;2024-02-23T03:49:18;98435.80;;;9.20
68588;BMP180;55560;52.174;20.996;2024-02-23T03:51:47;98434.60;;;9.20
68588;BMP180;55560;52.174;20.996;2024-02-23T03:54:15;98438.00;;;9.12
68588;BMP180;55560;52.174;20.996;2024-02-23T03:56:43;98435.60;;;9.10
68588;BMP180;55560;52.174;20.996;2024-02-23T03:59:11;98441.80;;;9.18
68588;BMP180;55560;52.174;20.996;2024-02-23T04:01:39;98447.80;;;9.10
68588;BMP180;55560;52.174;20.996;2024-02-23T04:04:07;98448.00;;;9.10
68588;BMP180;55560;52.174;20.996;2024-02-23T04:06:35;98447.20;;;9.10
68588;BMP180;55560;52.174;20.996;2024-02-23T04:09:04;98448.00;;;9.10
68588;BMP180;55560;52.174;20.996;2024-02-23T04:11:33;98454.60;;;9.10
68588;BMP180;55560;52.174;20.996;2024-02-23T04:14:01;98457.80;;;9.04
68588;BMP180;55560;52.174;20.996;2024-02-23T04:16:29;98459.00;;;9.00
68588;BMP180;55560;52.174;20.996;2024-02-23T04:18:57;98456.60;;;9.00
68588;BMP180;55560;52.174;20.996;2024-02-23T04:21:27;98458.00;;;8.96
68588;BMP180;55560;52.174;20.996;2024-02-23T04:23:55;98463.20;;;8.90
68588;BMP180;55560;52.174;20.996;2024-02-23T04:26:23;98466.00;;;8.90
68588;BMP180;55560;52.174;20.996;2024-02-23T04:28:51;98468.60;;;8.90
68588;BMP180;55560;52.174;20.996;2024-02-23T04:31:19;98470.40;;;8.90
68588;BMP180;55560;52.174;20.996;2024-02-23T04:33:47;98470.60;;;8.90
68588;BMP180;55560;52.174;20.996;2024-02-23T04:36:19;98475.40;;;8.82
68588;BMP180;55560;52.174;20.996;2024-02-23T04:38:47;98475.60;;;8.80
68588;BMP180;55560;52.174;20.996;2024-02-23T04:41:19;98471.00;;;8.80
68588;BMP180;55560;52.174;20.996;2024-02-23T04:43:49;98474.40;;;8.80
68588;BMP180;55560;52.174;20.996;2024-02-23T04:46:17;98474.00;;;8.80
68588;BMP180;55560;52.174;20.996;2024-02-23T04:48:45;98475.80;;;8.80
68588;BMP180;55560;52.174;20.996;2024-02-23T04:51:13;98475.60;;;8.80
68588;BMP180;55560;52.174;20.996;2024-02-23T04:53:41;98476.60;;;8.80
68588;BMP180;55560;52.174;20.996;2024-02-23T04:56:09;98479.20;;;8.80
68588;BMP180;55560;52.174;20.996;2024-02-23T04:58:37;98482.80;;;8.80
68588;BMP180;55560;52.174;20.996;2024-02-23T05:01:05;98486.80;;;8.80
68588;BMP180;55560;52.174;20.996;2024-02-23T05:03:33;98489.20;;;8.80
68588;BMP180;55560;52.174;20.996;2024-02-23T05:06:05;98494.20;;;8.80
68588;BMP180;55560;52.174;20.996;2024-02-23T05:08:33;98493.40;;;8.80
68588;BMP180;55560;52.174;20.996;2024-02-23T05:11:01;98497.20;;;8.80
68588;BMP180;55560;52.174;20.996;2024-02-23T05:13:29;98498.20;;;8.80
68588;BMP180;55560;52.174;20.996;2024-02-23T05:15:57;98500.40;;;8.80
68588;BMP180;55560;52.174;20.996;2024-02-23T05:18:25;98503.60;;;8.80
68588;BMP180;55560;52.174;20.996;2024-02-23T05:20:53;98507.60;;;8.80
68588;BMP180;55560;52.174;20.996;2024-02-23T05:23:21;98508.20;;;8.80
68588;BMP180;55560;52.174;20.996;2024-02-23T05:25:49;98516.40;;;8.80
68588;BMP180;55560;52.174;20.996;2024-02-23T05:28:17;98516.80;;;8.80
68588;BMP180;55560;52.174;20.996;2024-02-23T05:30:45;98516.40;;;8.78
68588;BMP180;55560;52.174;20.996;2024-02-23T05:33:13;98520.20;;;8.76
68588;BMP180;55560;52.174;20.996;2024-02-23T05:35:41;98521.80;;;8.70
68588;BMP180;55560;52.174;20.996;2024-02-23T05:38:10;98526.60;;;8.76
68588;BMP180;55560;52.174;20.996;2024-02-23T05:40:37;98527.00;;;8.78
68588;BMP180;55560;52.174;20.996;2024-02-23T05:43:05;98531.60;;;8.70
68588;BMP180;55560;52.174;20.996;2024-02-23T05:45:33;98541.60;;;8.70
68588;BMP180;55560;52.174;20.996;2024-02-23T05:48:02;98539.80;;;8.70
68588;BMP180;55560;52.174;20.996;2024-02-23T05:50:30;98542.40;;;8.70
68588;BMP180;55560;52.174;20.996;2024-02-23T05:52:59;98544.20;;;8.70
68588;BMP180;55560;52.174;20.996;2024-02-23T05:55:27;98549.60;;;8.70
68588;BMP180;55560;52.174;20.996;2024-02-23T05:57:55;98555.00;;;8.70
68588;BMP180;55560;52.174;20.996;2024-02-23T06:00:23;98561.80;;;8.68
68588;BMP180;55560;52.174;20.996;2024-02-23T06:02:52;98560.80;;;8.70
68588;BMP180;55560;52.174;20.996;2024-02-23T06:05:20;98567.20;;;8.70
68588;BMP180;55560;52.174;20.996;2024-02-23T06:07:48;98565.20;;;8.70
68588;BMP180;55560;52.174;20.996;2024-02-23T06:10:16;98579.40;;;8.70
68588;BMP180;55560;52.174;20.996;2024-02-23T06:12:44;98580.40;;;8.70
68588;BMP180;55560;52.174;20.996;2024-02-23T06:15:12;98584.00;;;8.70
68588;BMP180;55560;52.174;20.996;2024-02-23T06:17:40;98585.20;;;8.70
68588;BMP180;55560;52.174;20.996;2024-02-23T06:20:09;98582.60;;;8.70
68588;BMP180;55560;52.174;20.996;2024-02-23T06:22:37;98591.40;;;8.70
68588;BMP180;55560;52.174;20.996;2024-02-23T06:25:05;98592.20;;;8.70
68588;BMP180;55560;52.174;20.996;2024-02-23T06:27:35;98596.80;;;8.70
68588;BMP180;55560;52.174;20.996;2024-02-23T06:30:05;98602.20;;;8.70
68588;BMP180;55560;52.174;20.996;2024-02-23T06:32:33;98605.40;;;8.72
68588;BMP180;55560;52.174;20.996;2024-02-23T06:35:01;98608.00;;;8.78
68588;BMP180;55560;52.174;20.996;2024-02-23T06:37:30;98603.40;;;8.80
68588;BMP180;55560;52.174;20.996;2024-02-23T06:39:58;98613.20;;;8.80
68588;BMP180;55560;52.174;20.996;2024-02-23T06:42:27;98612.60;;;8.80
68588;BMP180;55560;52.174;20.996;2024-02-23T06:44:55;98611.60;;;8.80
68588;BMP180;55560;52.174;20.996;2024-02-23T06:47:23;98615.80;;;8.80
68588;BMP180;55560;52.174;20.996;2024-02-23T06:49:52;98616.60;;;8.80
68588;BMP180;55560;52.174;20.996;2024-02-23T06:52:20;98619.80;;;8.80
68588;BMP180;55560;52.174;20.996;2024-02-23T06:54:48;98620.60;;;8.80
68588;BMP180;55560;52.174;20.996;2024-02-23T06:57:16;98619.00;;;8.80
68588;BMP180;55560;52.174;20.996;2024-02-23T06:59:44;98626.60;;;8.86
68588;BMP180;55560;52.174;20.996;2024-02-23T07:02:12;98627.40;;;8.86
68588;BMP180;55560;52.174;20.996;2024-02-23T07:04:40;98632.00;;;8.90
68588;BMP180;55560;52.174;20.996;2024-02-23T07:07:08;98640.60;;;8.90
68588;BMP180;55560;52.174;20.996;2024-02-23T07:09:36;98644.60;;;8.90
68588;BMP180;55560;52.174;20.996;2024-02-23T07:12:05;98646.40;;;8.90
68588;BMP180;55560;52.174;20.996;2024-02-23T07:14:33;98652.20;;;8.90
68588;BMP180;55560;52.174;20.996;2024-02-23T07:17:01;98651.40;;;8.90
68588;BMP180;55560;52.174;20.996;2024-02-23T07:19:29;98656.80;;;8.90
68588;BMP180;55560;52.174;20.996;2024-02-23T07:21:57;98658.60;;;8.94
68588;BMP180;55560;52.174;20.996;2024-02-23T07:24:25;98658.20;;;8.90
68588;BMP180;55560;52.174;20.996;2024-02-23T07:26:53;98660.80;;;8.90
68588;BMP180;55560;52.174;20.996;2024-02-23T07:29:20;98664.00;;;8.92
68588;BMP180;55560;52.174;20.996;2024-02-23T07:31:48;98670.00;;;9.00
68588;BMP180;55560;52.174;20.996;2024-02-23T07:34:16;98669.60;;;9.00
68588;BMP180;55560;52.174;20.996;2024-02-23T07:36:44;98669.40;;;9.00
68588;BMP180;55560;52.174;20.996;2024-02-23T07:39:12;98670.40;;;9.00
68588;BMP180;55560;52.174;20.996;2024-02-23T07:41:40;98671.20;;;9.00
68588;BMP180;55560;52.174;20.996;2024-02-23T07:44:08;98672.00;;;9.00
68588;BMP180;55560;52.174;20.996;2024-02-23T07:46:36;98673.20;;;9.04
68588;BMP180;55560;52.174;20.996;2024-02-23T07:49:05;98685.20;;;9.08
68588;BMP180;55560;52.174;20.996;2024-02-23T07:51:37;98691.00;;;9.10
68588;BMP180;55560;52.174;20.996;2024-02-23T07:54:05;98691.40;;;9.10
68588;BMP180;55560;52.174;20.996;2024-02-23T07:56:33;98698.40;;;9.10
68588;BMP180;55560;52.174;20.996;2024-02-23T07:59:01;98704.80;;;9.10
68588;BMP180;55560;52.174;20.996;2024-02-23T08:01:31;98708.80;;;9.14
68588;BMP180;55560;52.174;20.996;2024-02-23T08:03:59;98710.00;;;9.20
68588;BMP180;55560;52.174;20.996;2024-02-23T08:06:27;98713.80;;;9.20
68588;BMP180;55560;52.174;20.996;2024-02-23T08:08:54;98718.60;;;9.20
68588;BMP180;55560;52.174;20.996;2024-02-23T08:11:22;98721.60;;;9.20
68588;BMP180;55560;52.174;20.996;2024-02-23T08:13:50;98721.20;;;9.20
68588;BMP180;55560;52.174;20.996;2024-02-23T08:16:18;98722.20;;;9.20
68588;BMP180;55560;52.174;20.996;2024-02-23T08:18:46;98735.00;;;9.20
68588;BMP180;55560;52.174;20.996;2024-02-23T08:21:14;98735.20;;;9.20
68588;BMP180;55560;52.174;20.996;2024-02-23T08:23:43;98728.80;;;9.20
68588;BMP180;55560;52.174;20.996;2024-02-23T08:26:11;98729.60;;;9.20
68588;BMP180;55560;52.174;20.996;2024-02-23T08:28:39;98740.20;;;9.20
68588;BMP180;55560;52.174;20.996;2024-02-23T08:31:07;98741.00;;;9.22
68588;BMP180;55560;52.174;20.996;2024-02-23T08:33:35;98737.60;;;9.30
68588;BMP180;55560;52.174;20.996;2024-02-23T08:36:04;98740.80;;;9.30
68588;BMP180;55560;52.174;20.996;2024-02-23T08:38:33;98742.20;;;9.30
68588;BMP180;55560;52.174;20.996;2024-02-23T08:41:02;98747.40;;;9.40
68588;BMP180;55560;52.174;20.996;2024-02-23T08:43:30;98745.80;;;9.40
68588;BMP180;55560;52.174;20.996;2024-02-23T08:45:58;98749.20;;;9.40
68588;BMP180;55560;52.174;20.996;2024-02-23T08:48:34;98762.40;;;9.50
68588;BMP180;55560;52.174;20.996;2024-02-23T08:51:02;98758.20;;;9.50
68588;BMP180;55560;52.174;20.996;2024-02-23T08:53:30;98765.60;;;9.52
68588;BMP180;55560;52.174;20.996;2024-02-23T08:55:58;98776.40;;;9.54
68588;BMP180;55560;52.174;20.996;2024-02-23T08:58:26;98782.80;;;9.58
68588;BMP180;55560;52.174;20.996;2024-02-23T09:00:54;98777.80;;;9.60
68588;BMP180;55560;52.174;20.996;2024-02-23T09:03:22;98778.20;;;9.60
68588;BMP180;55560;52.174;20.996;2024-02-23T09:05:50;98776.40;;;9.70
68588;BMP180;55560;52.174;20.996;2024-02-23T09:08:18;98780.60;;;9.70
68588;BMP180;55560;52.174;20.996;2024-02-23T09:10:47;98781.00;;;9.70
68588;BMP180;55560;52.174;20.996;2024-02-23T09:13:14;98781.40;;;9.78
68588;BMP180;55560;52.174;20.996;2024-02-23T09:15:43;98777.00;;;9.80
68588;BMP180;55560;52.174;20.996;2024-02-23T09:18:11;98780.00;;;9.90
68588;BMP180;55560;52.174;20.996;2024-02-23T09:20:39;98784.00;;;9.90
68588;BMP180;55560;52.174;20.996;2024-02-23T09:23:07;98786.20;;;10.00
68588;BMP180;55560;52.174;20.996;2024-02-23T09:25:35;98794.40;;;10.00
68588;BMP180;55560;52.174;20.996;2024-02-23T09:28:03;98789.60;;;10.10
68588;BMP180;55560;52.174;20.996;2024-02-23T09:30:31;98791.80;;;10.20
68588;BMP180;55560;52.174;20.996;2024-02-23T09:32:59;98789.60;;;10.24
68588;BMP180;55560;52.174;20.996;2024-02-23T09:35:28;98796.80;;;10.30
68588;BMP180;55560;52.174;20.996;2024-02-23T09:37:56;98795.40;;;10.36
68588;BMP180;55560;52.174;20.996;2024-02-23T09:40:24;98800.60;;;10.40
68588;BMP180;55560;52.174;20.996;2024-02-23T09:42:57;98805.20;;;10.50
68588;BMP180;55560;52.174;20.996;2024-02-23T09:45:25;98811.80;;;10.50
68588;BMP180;55560;52.174;20.996;2024-02-23T09:47:57;98808.20;;;10.50
68588;BMP180;55560;52.174;20.996;2024-02-23T09:50:27;98813.20;;;10.50
68588;BMP180;55560;52.174;20.996;2024-02-23T09:52:58;98819.40;;;10.60
68588;BMP180;55560;52.174;20.996;2024-02-23T09:55:26;98824.40;;;10.60
68588;BMP180;55560;52.174;20.996;2024-02-23T09:57:55;98828.40;;;10.60
68588;BMP180;55560;52.174;20.996;2024-02-23T10:00:27;98830.20;;;10.60
68588;BMP180;55560;52.174;20.996;2024-02-23T10:02:55;98830.20;;;10.60
68588;BMP180;55560;52.174;20.996;2024-02-23T10:05:30;98835.40;;;10.60
68588;BMP180;55560;52.174;20.996;2024-02-23T10:08:05;98836.40;;;10.60
68588;BMP180;55560;52.174;20.996;2024-02-23T10:10:34;98830.60;;;10.60
68588;BMP180;55560;52.174;20.996;2024-02-23T10:13:02;98839.00;;;10.70
68588;BMP180;55560;52.174;20.996;2024-02-23T10:15:32;98837.20;;;10.70
68588;BMP180;55560;52.174;20.996;2024-02-23T10:18:00;98839.20;;;10.72
68588;BMP180;55560;52.174;20.996;2024-02-23T10:20:28;98841.20;;;10.80
68588;BMP180;55560;52.174;20.996;2024-02-23T10:22:56;98845.40;;;10.80
68588;BMP180;55560;52.174;20.996;2024-02-23T10:25:25;98845.60;;;10.80
68588;BMP180;55560;52.174;20.996;2024-02-23T10:27:52;98849.00;;;10.86
68588;BMP180;55560;52.174;20.996;2024-02-23T10:30:20;98853.20;;;10.88
68588;BMP180;55560;52.174;20.996;2024-02-23T10:32:49;98859.60;;;10.82
68588;BMP180;55560;52.174;20.996;2024-02-23T10:35:21;98861.80;;;10.80
68588;BMP180;55560;52.174;20.996;2024-02-23T10:37:51;98863.00;;;10.80
68588;BMP180;55560;52.174;20.996;2024-02-23T10:40:21;98869.40;;;10.80
68588;BMP180;55560;52.174;20.996;2024-02-23T10:42:56;98870.40;;;10.80
68588;BMP180;55560;52.174;20.996;2024-02-23T10:45:24;98877.40;;;10.80
68588;BMP180;55560;52.174;20.996;2024-02-23T10:47:52;98877.80;;;10.80
68588;BMP180;55560;52.174;20.996;2024-02-23T10:50:21;98880.80;;;10.80
68588;BMP180;55560;52.174;20.996;2024-02-23T10:52:50;98886.00;;;10.80
68588;BMP180;55560;52.174;20.996;2024-02-23T10:55:18;98885.20;;;10.80
68588;BMP180;55560;52.174;20.996;2024-02-23T10:57:48;98888.80;;;10.80
68588;BMP180;55560;52.174;20.996;2024-02-23T11:00:21;98894.40;;;10.80
68588;BMP180;55560;52.174;20.996;2024-02-23T11:02:52;98894.00;;;10.80
68588;BMP180;55560;52.174;20.996;2024-02-23T11:05:20;98895.40;;;10.80
68588;BMP180;55560;52.174;20.996;2024-02-23T11:07:49;98898.20;;;10.80
68588;BMP180;55560;52.174;20.996;2024-02-23T11:10:17;98900.80;;;10.90
68588;BMP180;55560;52.174;20.996;2024-02-23T11:12:57;98906.60;;;10.90
68588;BMP180;55560;52.174;20.996;2024-02-23T11:15:28;98908.20;;;10.90
68588;BMP180;55560;52.174;20.996;2024-02-23T11:17:56;98909.20;;;10.90
68588;BMP180;55560;52.174;20.996;2024-02-23T11:20:36;98912.20;;;10.90
68588;BMP180;55560;52.174;20.996;2024-02-23T11:23:13;98921.40;;;10.90
68588;BMP180;55560;52.174;20.996;2024-02-23T11:25:42;98915.40;;;10.90
68588;BMP180;55560;52.174;20.996;2024-02-23T11:28:22;98918.80;;;10.90
68588;BMP180;55560;52.174;20.996;2024-02-23T11:30:51;98919.20;;;10.98
68588;BMP180;55560;52.174;20.996;2024-02-23T11:33:26;98927.00;;;11.00
68588;BMP180;55560;52.174;20.996;2024-02-23T11:36:06;98930.20;;;11.00
68588;BMP180;55560;52.174;20.996;2024-02-23T11:38:35;98932.40;;;11.00
68588;BMP180;55560;52.174;20.996;2024-02-23T11:41:04;98936.00;;;11.00
68588;BMP180;55560;52.174;20.996;2024-02-23T11:43:34;98941.40;;;11.06
68588;BMP180;55560;52.174;20.996;2024-02-23T11:46:02;98944.60;;;11.08
68588;BMP180;55560;52.174;20.996;2024-02-23T11:48:30;98942.60;;;11.10
68588;BMP180;55560;52.174;20.996;2024-02-23T11:50:58;98944.20;;;11.10
68588;BMP180;55560;52.174;20.996;2024-02-23T11:53:26;98947.60;;;11.10
68588;BMP180;55560;52.174;20.996;2024-02-23T11:55:55;98950.80;;;11.20
68588;BMP180;55560;52.174;20.996;2024-02-23T11:58:23;98956.20;;;11.20
68588;BMP180;55560;52.174;20.996;2024-02-23T12:00:51;98960.60;;;11.20
68588;BMP180;55560;52.174;20.996;2024-02-23T12:03:19;98963.20;;;11.20
68588;BMP180;55560;52.174;20.996;2024-02-23T12:05:50;98969.40;;;11.20
68588;BMP180;55560;52.174;20.996;2024-02-23T12:08:18;98965.00;;;11.26
68588;BMP180;55560;52.174;20.996;2024-02-23T12:10:47;98969.80;;;11.30
68588;BMP180;55560;52.174;20.996;2024-02-23T12:13:16;98971.40;;;11.30
68588;BMP180;55560;52.174;20.996;2024-02-23T12:15:44;98973.40;;;11.30
68588;BMP180;55560;52.174;20.996;2024-02-23T12:18:13;98979.40;;;11.40
68588;BMP180;55560;52.174;20.996;2024-02-23T12:20:41;98979.60;;;11.40
68588;BMP180;55560;52.174;20.996;2024-02-23T12:23:11;98982.00;;;11.40
68588;BMP180;55560;52.174;20.996;2024-02-23T12:25:56;98975.20;;;11.40
68588;BMP180;55560;52.174;20.996;2024-02-23T12:28:24;98981.00;;;11.44
68588;BMP180;55560;52.174;20.996;2024-02-23T12:31:03;98983.80;;;11.50
68588;BMP180;55560;52.174;20.996;2024-02-23T12:33:33;98984.20;;;11.50
68588;BMP180;55560;52.174;20.996;2024-02-23T12:36:04;98988.60;;;11.50
68588;BMP180;55560;52.174;20.996;2024-02-23T12:38:32;98992.40;;;11.60
68588;BMP180;55560;52.174;20.996;2024-02-23T12:41:02;98991.20;;;11.60
68588;BMP180;55560;52.174;20.996;2024-02-23T12:43:30;98987.00;;;11.60
68588;BMP180;55560;52.174;20.996;2024-02-23T12:45:58;98988.40;;;11.60
68588;BMP180;55560;52.174;20.996;2024-02-23T12:48:26;98987.00;;;11.60
68588;BMP180;55560;52.174;20.996;2024-02-23T12:50:54;98992.40;;;11.60
68588;BMP180;55560;52.174;20.996;2024-02-23T12:53:37;98991.40;;;11.60
68588;BMP180;55560;52.174;20.996;2024-02-23T12:56:11;98990.60;;;11.60
68588;BMP180;55560;52.174;20.996;2024-02-23T12:58:43;98991.00;;;11.70
68588;BMP180;55560;52.174;20.996;2024-02-23T13:01:11;98997.40;;;11.70
68588;BMP180;55560;52.174;20.996;2024-02-23T13:03:40;99004.20;;;11.70
68588;BMP180;55560;52.174;20.996;2024-02-23T13:06:08;99007.80;;;11.80
68588;BMP180;55560;52.174;20.996;2024-02-23T13:08:36;99010.40;;;11.80
68588;BMP180;55560;52.174;20.996;2024-02-23T13:11:06;99011.80;;;11.76
68588;BMP180;55560;52.174;20.996;2024-02-23T13:13:35;99008.80;;;11.76
68588;BMP180;55560;52.174;20.996;2024-02-23T13:16:03;99015.40;;;11.70
68588;BMP180;55560;52.174;20.996;2024-02-23T13:18:32;99015.00;;;11.70
68588;BMP180;55560;52.174;20.996;2024-02-23T13:21:00;99019.80;;;11.70
68588;BMP180;55560;52.174;20.996;2024-02-23T13:23:28;99015.20;;;11.60
68588;BMP180;55560;52.174;20.996;2024-02-23T13:25:56;99021.80;;;11.60
68588;BMP180;55560;52.174;20.996;2024-02-23T13:28:24;99025.20;;;11.60
68588;BMP180;55560;52.174;20.996;2024-02-23T13:30:52;99034.00;;;11.60
68588;BMP180;55560;52.174;20.996;2024-02-23T13:33:20;99041.20;;;11.60
68588;BMP180;55560;52.174;20.996;2024-02-23T13:35:50;99040.20;;;11.58
68588;BMP180;55560;52.174;20.996;2024-02-23T13:38:18;99043.20;;;11.50
68588;BMP180;55560;52.174;20.996;2024-02-23T13:40:46;99049.20;;;11.50
68588;BMP180;55560;52.174;20.996;2024-02-23T13:43:15;99052.00;;;11.50
68588;BMP180;55560;52.174;20.996;2024-02-23T13:45:52;99060.20;;;11.48
68588;BMP180;55560;52.174;20.996;2024-02-23T13:48:20;99062.20;;;11.40
68588;BMP180;55560;52.174;20.996;2024-02-23T13:50:48;99065.60;;;11.40
68588;BMP180;55560;52.174;20.996;2024-02-23T13:53:17;99067.20;;;11.40
68588;BMP180;55560;52.174;20.996;2024-02-23T13:55:45;99068.20;;;11.40
68588;BMP180;55560;52.174;20.996;2024-02-23T13:58:13;99066.20;;;11.40
68588;BMP180;55560;52.174;20.996;2024-02-23T14:00:41;99063.60;;;11.40
68588;BMP180;55560;52.174;20.996;2024-02-23T14:03:16;99061.00;;;11.40
68588;BMP180;55560;52.174;20.996;2024-02-23T14:05:45;99065.40;;;11.40
68588;BMP180;55560;52.174;20.996;2024-02-23T14:08:15;99069.60;;;11.40
68588;BMP180;55560;52.174;20.996;2024-02-23T14:10:43;99062.80;;;11.40
68588;BMP180;55560;52.174;20.996;2024-02-23T14:13:11;99064.60;;;11.40